sensor_id;sensor_type;location;lat;lon;timestamp;P1;durP1;ratioP1;P2;durP2;ratioP2
78116;SDS011;69042;59.120;37.904;2023-10-31T00:01:02;9.65;;;4.80;;
78116;SDS011;69042;59.120;37.904;2023-10-31T00:03:29;9.88;;;5.00;;
78116;SDS011;69042;59.120;37.904;2023-10-31T00:05:55;10.20;;;4.88;;
78116;SDS011;69042;59.120;37.904;2023-10-31T00:08:21;9.73;;;4.70;;
78116;SDS011;69042;59.120;37.904;2023-10-31T00:10:50;10.85;;;4.70;;
78116;SDS011;69042;59.120;37.904;2023-10-31T00:13:16;9.45;;;4.65;;
78116;SDS011;69042;59.120;37.904;2023-10-31T00:15:42;10.30;;;4.85;;
78116;SDS011;69042;59.120;37.904;2023-10-31T00:18:09;12.40;;;5.10;;
78116;SDS011;69042;59.120;37.904;2023-10-31T00:20:35;11.60;;;4.80;;
78116;SDS011;69042;59.120;37.904;2023-10-31T00:23:02;10.05;;;4.88;;
78116;SDS011;69042;59.120;37.904;2023-10-31T00:25:28;13.23;;;4.60;;
78116;SDS011;69042;59.120;37.904;2023-10-31T00:27:54;12.73;;;6.75;;
78116;SDS011;69042;59.120;37.904;2023-10-31T00:30:21;11.10;;;5.43;;
78116;SDS011;69042;59.120;37.904;2023-10-31T00:32:47;14.38;;;6.78;;
78116;SDS011;69042;59.120;37.904;2023-10-31T00:35:13;16.48;;;8.05;;
78116;SDS011;69042;59.120;37.904;2023-10-31T00:37:41;16.17;;;7.97;;
78116;SDS011;69042;59.120;37.904;2023-10-31T00:40:08;18.23;;;7.88;;
78116;SDS011;69042;59.120;37.904;2023-10-31T00:42:37;14.52;;;7.30;;
78116;SDS011;69042;59.120;37.904;2023-10-31T00:45:05;17.92;;;8.18;;
78116;SDS011;69042;59.120;37.904;2023-10-31T00:47:33;18.20;;;9.38;;
78116;SDS011;69042;59.120;37.904;2023-10-31T00:50:00;13.88;;;6.38;;
78116;SDS011;69042;59.120;37.904;2023-10-31T00:52:26;15.48;;;6.97;;
78116;SDS011;69042;59.120;37.904;2023-10-31T00:54:52;16.38;;;6.85;;
78116;SDS011;69042;59.120;37.904;2023-10-31T00:57:19;14.65;;;6.35;;
78116;SDS011;69042;59.120;37.904;2023-10-31T00:59:45;15.75;;;6.65;;
78116;SDS011;69042;59.120;37.904;2023-10-31T01:02:11;12.98;;;5.43;;
78116;SDS011;69042;59.120;37.904;2023-10-31T01:04:38;11.95;;;5.07;;
78116;SDS011;69042;59.120;37.904;2023-10-31T01:07:04;11.90;;;4.88;;
78116;SDS011;69042;59.120;37.904;2023-10-31T01:09:30;10.68;;;4.50;;
78116;SDS011;69042;59.120;37.904;2023-10-31T01:11:57;10.65;;;4.72;;
78116;SDS011;69042;59.120;37.904;2023-10-31T01:14:23;10.75;;;4.32;;
78116;SDS011;69042;59.120;37.904;2023-10-31T01:16:49;9.90;;;4.28;;
78116;SDS011;69042;59.120;37.904;2023-10-31T01:19:16;9.88;;;4.15;;
78116;SDS011;69042;59.120;37.904;2023-10-31T01:21:42;8.55;;;3.97;;
78116;SDS011;69042;59.120;37.904;2023-10-31T01:24:08;9.68;;;4.35;;
78116;SDS011;69042;59.120;37.904;2023-10-31T01:26:35;11.43;;;4.20;;
78116;SDS011;69042;59.120;37.904;2023-10-31T01:29:02;11.85;;;4.45;;
78116;SDS011;69042;59.120;37.904;2023-10-31T01:31:28;8.13;;;3.75;;
78116;SDS011;69042;59.120;37.904;2023-10-31T01:33:54;10.02;;;4.40;;
78116;SDS011;69042;59.120;37.904;2023-10-31T01:36:27;11.90;;;4.70;;
78116;SDS011;69042;59.120;37.904;2023-10-31T01:38:54;10.50;;;4.35;;
78116;SDS011;69042;59.120;37.904;2023-10-31T01:41:20;10.25;;;4.57;;
78116;SDS011;69042;59.120;37.904;2023-10-31T01:43:46;12.65;;;4.47;;
78116;SDS011;69042;59.120;37.904;2023-10-31T01:46:13;10.00;;;3.97;;
78116;SDS011;69042;59.120;37.904;2023-10-31T01:48:39;9.70;;;4.13;;
78116;SDS011;69042;59.120;37.904;2023-10-31T01:51:06;9.45;;;4.35;;
78116;SDS011;69042;59.120;37.904;2023-10-31T01:53:33;9.73;;;4.20;;
78116;SDS011;69042;59.120;37.904;2023-10-31T01:56:01;9.30;;;4.25;;
78116;SDS011;69042;59.120;37.904;2023-10-31T01:58:36;9.57;;;4.50;;
78116;SDS011;69042;59.120;37.904;2023-10-31T02:01:04;9.68;;;4.63;;
78116;SDS011;69042;59.120;37.904;2023-10-31T02:03:31;11.32;;;4.28;;
78116;SDS011;69042;59.120;37.904;2023-10-31T02:05:59;10.35;;;4.53;;
78116;SDS011;69042;59.120;37.904;2023-10-31T02:08:25;9.10;;;4.30;;
78116;SDS011;69042;59.120;37.904;2023-10-31T02:10:51;10.65;;;4.18;;
78116;SDS011;69042;59.120;37.904;2023-10-31T02:13:18;9.85;;;4.57;;
78116;SDS011;69042;59.120;37.904;2023-10-31T02:15:45;10.88;;;4.72;;
78116;SDS011;69042;59.120;37.904;2023-10-31T02:18:12;10.32;;;4.82;;
78116;SDS011;69042;59.120;37.904;2023-10-31T02:20:39;11.05;;;4.63;;
78116;SDS011;69042;59.120;37.904;2023-10-31T02:23:06;12.25;;;4.93;;
78116;SDS011;69042;59.120;37.904;2023-10-31T02:25:32;10.77;;;4.70;;
78116;SDS011;69042;59.120;37.904;2023-10-31T02:27:59;12.10;;;5.03;;
78116;SDS011;69042;59.120;37.904;2023-10-31T02:30:26;11.05;;;4.88;;
78116;SDS011;69042;59.120;37.904;2023-10-31T02:32:53;10.23;;;4.82;;
78116;SDS011;69042;59.120;37.904;2023-10-31T02:35:20;10.07;;;4.57;;
78116;SDS011;69042;59.120;37.904;2023-10-31T02:37:46;11.68;;;4.85;;
78116;SDS011;69042;59.120;37.904;2023-10-31T02:40:13;11.77;;;5.25;;
78116;SDS011;69042;59.120;37.904;2023-10-31T02:42:40;8.70;;;4.28;;
78116;SDS011;69042;59.120;37.904;2023-10-31T02:45:07;12.23;;;4.75;;
78116;SDS011;69042;59.120;37.904;2023-10-31T02:47:33;10.50;;;4.57;;
78116;SDS011;69042;59.120;37.904;2023-10-31T02:50:00;10.43;;;4.32;;
78116;SDS011;69042;59.120;37.904;2023-10-31T02:52:26;9.95;;;4.63;;
78116;SDS011;69042;59.120;37.904;2023-10-31T02:54:54;11.90;;;4.38;;
78116;SDS011;69042;59.120;37.904;2023-10-31T02:57:21;10.23;;;4.78;;
78116;SDS011;69042;59.120;37.904;2023-10-31T02:59:47;11.05;;;5.05;;
78116;SDS011;69042;59.120;37.904;2023-10-31T03:02:14;10.80;;;4.63;;
78116;SDS011;69042;59.120;37.904;2023-10-31T03:04:40;9.15;;;4.65;;
78116;SDS011;69042;59.120;37.904;2023-10-31T03:07:06;11.65;;;4.70;;
78116;SDS011;69042;59.120;37.904;2023-10-31T03:09:33;10.85;;;4.25;;
78116;SDS011;69042;59.120;37.904;2023-10-31T03:11:59;12.25;;;4.65;;
78116;SDS011;69042;59.120;37.904;2023-10-31T03:14:26;10.90;;;4.63;;
78116;SDS011;69042;59.120;37.904;2023-10-31T03:16:54;10.45;;;4.70;;
78116;SDS011;69042;59.120;37.904;2023-10-31T03:19:20;11.20;;;5.13;;
78116;SDS011;69042;59.120;37.904;2023-10-31T03:21:46;10.98;;;4.68;;
78116;SDS011;69042;59.120;37.904;2023-10-31T03:24:13;12.77;;;5.10;;
78116;SDS011;69042;59.120;37.904;2023-10-31T03:26:39;10.18;;;4.43;;
78116;SDS011;69042;59.120;37.904;2023-10-31T03:29:05;13.02;;;4.68;;
78116;SDS011;69042;59.120;37.904;2023-10-31T03:31:32;11.75;;;5.00;;
78116;SDS011;69042;59.120;37.904;2023-10-31T03:33:58;9.52;;;4.38;;
78116;SDS011;69042;59.120;37.904;2023-10-31T03:36:24;10.77;;;4.57;;
78116;SDS011;69042;59.120;37.904;2023-10-31T03:38:51;12.32;;;4.57;;
78116;SDS011;69042;59.120;37.904;2023-10-31T03:41:17;9.05;;;3.92;;
78116;SDS011;69042;59.120;37.904;2023-10-31T03:43:43;8.88;;;3.97;;
78116;SDS011;69042;59.120;37.904;2023-10-31T03:46:11;11.32;;;5.20;;
78116;SDS011;69042;59.120;37.904;2023-10-31T03:48:37;11.00;;;4.22;;
78116;SDS011;69042;59.120;37.904;2023-10-31T03:51:03;10.43;;;4.47;;
78116;SDS011;69042;59.120;37.904;2023-10-31T03:53:30;12.02;;;4.88;;
78116;SDS011;69042;59.120;37.904;2023-10-31T03:55:58;10.50;;;4.65;;
78116;SDS011;69042;59.120;37.904;2023-10-31T03:58:26;13.05;;;5.55;;
78116;SDS011;69042;59.120;37.904;2023-10-31T04:00:52;12.15;;;5.43;;
78116;SDS011;69042;59.120;37.904;2023-10-31T04:03:18;9.45;;;4.38;;
78116;SDS011;69042;59.120;37.904;2023-10-31T04:05:45;9.13;;;4.00;;
78116;SDS011;69042;59.120;37.904;2023-10-31T04:08:11;10.13;;;4.55;;
78116;SDS011;69042;59.120;37.904;2023-10-31T04:10:37;10.10;;;3.92;;
78116;SDS011;69042;59.120;37.904;2023-10-31T04:13:04;9.40;;;4.30;;
78116;SDS011;69042;59.120;37.904;2023-10-31T04:15:30;11.15;;;4.40;;
78116;SDS011;69042;59.120;37.904;2023-10-31T04:17:56;12.07;;;4.95;;
78116;SDS011;69042;59.120;37.904;2023-10-31T04:20:23;9.25;;;4.50;;
78116;SDS011;69042;59.120;37.904;2023-10-31T04:22:49;9.70;;;4.50;;
78116;SDS011;69042;59.120;37.904;2023-10-31T04:25:15;11.43;;;4.70;;
78116;SDS011;69042;59.120;37.904;2023-10-31T04:27:42;10.68;;;4.38;;
78116;SDS011;69042;59.120;37.904;2023-10-31T04:30:08;10.55;;;4.72;;
78116;SDS011;69042;59.120;37.904;2023-10-31T04:32:35;13.65;;;4.65;;
78116;SDS011;69042;59.120;37.904;2023-10-31T04:35:01;11.65;;;4.55;;
78116;SDS011;69042;59.120;37.904;2023-10-31T04:37:28;9.35;;;4.10;;
78116;SDS011;69042;59.120;37.904;2023-10-31T04:39:55;9.63;;;4.45;;
78116;SDS011;69042;59.120;37.904;2023-10-31T04:42:21;9.88;;;4.43;;
78116;SDS011;69042;59.120;37.904;2023-10-31T04:44:48;12.77;;;5.20;;
78116;SDS011;69042;59.120;37.904;2023-10-31T04:47:14;13.52;;;5.45;;
78116;SDS011;69042;59.120;37.904;2023-10-31T04:49:41;16.95;;;5.28;;
78116;SDS011;69042;59.120;37.904;2023-10-31T04:52:07;13.32;;;5.18;;
78116;SDS011;69042;59.120;37.904;2023-10-31T04:54:34;11.00;;;5.35;;
78116;SDS011;69042;59.120;37.904;2023-10-31T04:57:00;11.05;;;5.18;;
78116;SDS011;69042;59.120;37.904;2023-10-31T04:59:27;15.80;;;5.80;;
78116;SDS011;69042;59.120;37.904;2023-10-31T05:01:53;13.93;;;5.45;;
78116;SDS011;69042;59.120;37.904;2023-10-31T05:04:21;11.90;;;5.32;;
78116;SDS011;69042;59.120;37.904;2023-10-31T05:06:47;10.70;;;4.82;;
78116;SDS011;69042;59.120;37.904;2023-10-31T05:09:15;10.75;;;5.05;;
78116;SDS011;69042;59.120;37.904;2023-10-31T05:11:41;11.45;;;4.75;;
78116;SDS011;69042;59.120;37.904;2023-10-31T05:14:08;11.07;;;4.53;;
78116;SDS011;69042;59.120;37.904;2023-10-31T05:16:42;11.30;;;4.85;;
78116;SDS011;69042;59.120;37.904;2023-10-31T05:19:09;11.10;;;4.85;;
78116;SDS011;69042;59.120;37.904;2023-10-31T05:21:36;10.50;;;4.93;;
78116;SDS011;69042;59.120;37.904;2023-10-31T05:24:02;11.13;;;4.00;;
78116;SDS011;69042;59.120;37.904;2023-10-31T05:26:29;11.38;;;4.57;;
78116;SDS011;69042;59.120;37.904;2023-10-31T05:28:56;10.90;;;4.25;;
78116;SDS011;69042;59.120;37.904;2023-10-31T05:31:24;9.40;;;4.35;;
78116;SDS011;69042;59.120;37.904;2023-10-31T05:33:51;11.75;;;4.07;;
78116;SDS011;69042;59.120;37.904;2023-10-31T05:36:21;9.80;;;4.40;;
78116;SDS011;69042;59.120;37.904;2023-10-31T05:38:49;10.43;;;5.03;;
78116;SDS011;69042;59.120;37.904;2023-10-31T05:41:16;11.80;;;4.95;;
78116;SDS011;69042;59.120;37.904;2023-10-31T05:43:42;10.40;;;4.80;;
78116;SDS011;69042;59.120;37.904;2023-10-31T05:46:08;10.02;;;4.35;;
78116;SDS011;69042;59.120;37.904;2023-10-31T05:48:41;10.30;;;4.40;;
78116;SDS011;69042;59.120;37.904;2023-10-31T05:51:13;10.70;;;4.82;;
78116;SDS011;69042;59.120;37.904;2023-10-31T05:53:41;10.70;;;4.50;;
78116;SDS011;69042;59.120;37.904;2023-10-31T05:56:08;13.48;;;6.15;;
78116;SDS011;69042;59.120;37.904;2023-10-31T05:58:36;18.00;;;6.50;;
78116;SDS011;69042;59.120;37.904;2023-10-31T06:01:04;14.00;;;6.18;;
78116;SDS011;69042;59.120;37.904;2023-10-31T06:03:31;15.25;;;6.30;;
78116;SDS011;69042;59.120;37.904;2023-10-31T06:05:58;16.15;;;6.70;;
78116;SDS011;69042;59.120;37.904;2023-10-31T06:08:25;14.50;;;7.20;;
78116;SDS011;69042;59.120;37.904;2023-10-31T06:10:57;16.77;;;6.88;;
78116;SDS011;69042;59.120;37.904;2023-10-31T06:13:26;14.70;;;7.20;;
78116;SDS011;69042;59.120;37.904;2023-10-31T06:15:53;20.40;;;8.77;;
78116;SDS011;69042;59.120;37.904;2023-10-31T06:18:20;16.75;;;6.47;;
78116;SDS011;69042;59.120;37.904;2023-10-31T06:20:46;14.27;;;6.38;;
78116;SDS011;69042;59.120;37.904;2023-10-31T06:23:13;14.20;;;6.05;;
78116;SDS011;69042;59.120;37.904;2023-10-31T06:25:39;15.35;;;6.82;;
78116;SDS011;69042;59.120;37.904;2023-10-31T06:28:06;21.45;;;6.75;;
78116;SDS011;69042;59.120;37.904;2023-10-31T06:30:32;11.98;;;5.53;;
78116;SDS011;69042;59.120;37.904;2023-10-31T06:32:58;14.77;;;6.40;;
78116;SDS011;69042;59.120;37.904;2023-10-31T06:35:26;20.17;;;5.88;;
78116;SDS011;69042;59.120;37.904;2023-10-31T06:37:54;14.70;;;6.10;;
78116;SDS011;69042;59.120;37.904;2023-10-31T06:40:22;12.68;;;6.43;;
78116;SDS011;69042;59.120;37.904;2023-10-31T06:42:51;17.58;;;6.35;;
78116;SDS011;69042;59.120;37.904;2023-10-31T06:45:18;16.85;;;7.40;;
78116;SDS011;69042;59.120;37.904;2023-10-31T06:47:45;17.13;;;7.30;;
78116;SDS011;69042;59.120;37.904;2023-10-31T06:50:12;16.05;;;7.80;;
78116;SDS011;69042;59.120;37.904;2023-10-31T06:52:38;18.45;;;8.25;;
78116;SDS011;69042;59.120;37.904;2023-10-31T06:55:05;21.67;;;9.45;;
78116;SDS011;69042;59.120;37.904;2023-10-31T06:57:31;22.77;;;9.55;;
78116;SDS011;69042;59.120;37.904;2023-10-31T06:59:58;21.13;;;9.10;;
78116;SDS011;69042;59.120;37.904;2023-10-31T07:02:24;19.33;;;9.80;;
78116;SDS011;69042;59.120;37.904;2023-10-31T07:04:51;19.70;;;8.40;;
78116;SDS011;69042;59.120;37.904;2023-10-31T07:07:18;19.73;;;7.95;;
78116;SDS011;69042;59.120;37.904;2023-10-31T07:09:44;19.95;;;9.05;;
78116;SDS011;69042;59.120;37.904;2023-10-31T07:12:11;20.38;;;8.00;;
78116;SDS011;69042;59.120;37.904;2023-10-31T07:14:37;20.65;;;8.52;;
78116;SDS011;69042;59.120;37.904;2023-10-31T07:17:03;21.52;;;8.82;;
78116;SDS011;69042;59.120;37.904;2023-10-31T07:19:30;24.30;;;9.30;;
78116;SDS011;69042;59.120;37.904;2023-10-31T07:21:56;20.58;;;8.93;;
78116;SDS011;69042;59.120;37.904;2023-10-31T07:24:22;19.48;;;8.75;;
78116;SDS011;69042;59.120;37.904;2023-10-31T07:26:49;21.48;;;8.90;;
78116;SDS011;69042;59.120;37.904;2023-10-31T07:29:15;18.15;;;8.55;;
78116;SDS011;69042;59.120;37.904;2023-10-31T07:31:41;18.73;;;7.68;;
78116;SDS011;69042;59.120;37.904;2023-10-31T07:34:08;18.20;;;8.57;;
78116;SDS011;69042;59.120;37.904;2023-10-31T07:36:37;21.88;;;9.80;;
78116;SDS011;69042;59.120;37.904;2023-10-31T07:39:03;18.23;;;8.32;;
78116;SDS011;69042;59.120;37.904;2023-10-31T07:41:29;18.67;;;7.25;;
78116;SDS011;69042;59.120;37.904;2023-10-31T07:43:56;21.95;;;8.60;;
78116;SDS011;69042;59.120;37.904;2023-10-31T07:46:22;20.00;;;8.30;;
78116;SDS011;69042;59.120;37.904;2023-10-31T07:48:49;19.00;;;8.15;;
78116;SDS011;69042;59.120;37.904;2023-10-31T07:51:15;19.40;;;8.30;;
78116;SDS011;69042;59.120;37.904;2023-10-31T07:53:42;21.08;;;8.75;;
78116;SDS011;69042;59.120;37.904;2023-10-31T07:56:17;22.40;;;8.95;;
78116;SDS011;69042;59.120;37.904;2023-10-31T07:58:49;19.20;;;8.75;;
78116;SDS011;69042;59.120;37.904;2023-10-31T08:01:18;20.45;;;9.23;;
78116;SDS011;69042;59.120;37.904;2023-10-31T08:03:46;21.52;;;8.90;;
78116;SDS011;69042;59.120;37.904;2023-10-31T08:06:15;21.77;;;9.57;;
78116;SDS011;69042;59.120;37.904;2023-10-31T08:08:43;22.58;;;9.75;;
78116;SDS011;69042;59.120;37.904;2023-10-31T08:11:09;21.10;;;9.85;;
78116;SDS011;69042;59.120;37.904;2023-10-31T08:13:36;22.58;;;10.05;;
78116;SDS011;69042;59.120;37.904;2023-10-31T08:16:04;21.60;;;10.40;;
78116;SDS011;69042;59.120;37.904;2023-10-31T08:18:32;25.13;;;10.75;;
78116;SDS011;69042;59.120;37.904;2023-10-31T08:20:59;24.42;;;10.77;;
78116;SDS011;69042;59.120;37.904;2023-10-31T08:23:25;25.60;;;10.55;;
78116;SDS011;69042;59.120;37.904;2023-10-31T08:25:52;23.63;;;11.50;;
78116;SDS011;69042;59.120;37.904;2023-10-31T08:28:19;25.30;;;11.18;;
78116;SDS011;69042;59.120;37.904;2023-10-31T08:30:46;23.55;;;11.50;;
78116;SDS011;69042;59.120;37.904;2023-10-31T08:33:13;32.05;;;12.65;;
78116;SDS011;69042;59.120;37.904;2023-10-31T08:35:41;29.27;;;13.48;;
78116;SDS011;69042;59.120;37.904;2023-10-31T08:38:08;28.27;;;12.45;;
78116;SDS011;69042;59.120;37.904;2023-10-31T08:40:35;29.80;;;13.35;;
78116;SDS011;69042;59.120;37.904;2023-10-31T08:43:01;33.38;;;13.90;;
78116;SDS011;69042;59.120;37.904;2023-10-31T08:47:56;28.38;;;12.23;;
78116;SDS011;69042;59.120;37.904;2023-10-31T08:50:22;29.23;;;12.30;;
78116;SDS011;69042;59.120;37.904;2023-10-31T08:52:48;27.52;;;11.48;;
78116;SDS011;69042;59.120;37.904;2023-10-31T08:55:15;39.45;;;13.25;;
78116;SDS011;69042;59.120;37.904;2023-10-31T08:57:41;33.13;;;13.80;;
78116;SDS011;69042;59.120;37.904;2023-10-31T09:00:08;31.92;;;13.32;;
78116;SDS011;69042;59.120;37.904;2023-10-31T09:02:35;31.35;;;13.32;;
78116;SDS011;69042;59.120;37.904;2023-10-31T09:05:01;32.35;;;13.20;;
78116;SDS011;69042;59.120;37.904;2023-10-31T09:07:28;31.77;;;11.75;;
78116;SDS011;69042;59.120;37.904;2023-10-31T09:09:54;26.55;;;12.25;;
78116;SDS011;69042;59.120;37.904;2023-10-31T09:12:20;29.35;;;12.43;;
78116;SDS011;69042;59.120;37.904;2023-10-31T09:14:47;28.88;;;13.48;;
78116;SDS011;69042;59.120;37.904;2023-10-31T09:17:13;28.85;;;13.30;;
78116;SDS011;69042;59.120;37.904;2023-10-31T09:19:39;29.85;;;14.18;;
78116;SDS011;69042;59.120;37.904;2023-10-31T09:22:06;33.30;;;15.23;;
78116;SDS011;69042;59.120;37.904;2023-10-31T09:24:33;35.30;;;13.45;;
78116;SDS011;69042;59.120;37.904;2023-10-31T09:26:59;32.60;;;15.13;;
78116;SDS011;69042;59.120;37.904;2023-10-31T09:29:27;30.27;;;13.68;;
78116;SDS011;69042;59.120;37.904;2023-10-31T09:31:53;30.88;;;14.43;;
78116;SDS011;69042;59.120;37.904;2023-10-31T09:34:20;31.80;;;14.27;;
78116;SDS011;69042;59.120;37.904;2023-10-31T09:36:46;29.92;;;14.00;;
78116;SDS011;69042;59.120;37.904;2023-10-31T09:39:12;26.75;;;13.23;;
78116;SDS011;69042;59.120;37.904;2023-10-31T09:41:39;31.80;;;13.25;;
78116;SDS011;69042;59.120;37.904;2023-10-31T09:44:05;30.95;;;14.75;;
78116;SDS011;69042;59.120;37.904;2023-10-31T09:46:32;29.35;;;14.63;;
78116;SDS011;69042;59.120;37.904;2023-10-31T09:48:59;29.67;;;14.32;;
78116;SDS011;69042;59.120;37.904;2023-10-31T09:51:26;28.05;;;13.93;;
78116;SDS011;69042;59.120;37.904;2023-10-31T09:53:54;34.53;;;15.55;;
78116;SDS011;69042;59.120;37.904;2023-10-31T09:56:23;30.52;;;11.98;;
78116;SDS011;69042;59.120;37.904;2023-10-31T09:58:50;22.95;;;11.20;;
78116;SDS011;69042;59.120;37.904;2023-10-31T10:01:17;22.15;;;10.32;;
78116;SDS011;69042;59.120;37.904;2023-10-31T10:03:43;22.90;;;9.60;;
78116;SDS011;69042;59.120;37.904;2023-10-31T10:06:10;23.08;;;10.02;;
78116;SDS011;69042;59.120;37.904;2023-10-31T10:08:38;23.55;;;10.02;;
78116;SDS011;69042;59.120;37.904;2023-10-31T10:11:05;25.55;;;10.93;;
78116;SDS011;69042;59.120;37.904;2023-10-31T10:13:32;23.55;;;11.13;;
78116;SDS011;69042;59.120;37.904;2023-10-31T10:15:59;20.38;;;9.75;;
78116;SDS011;69042;59.120;37.904;2023-10-31T10:18:29;28.98;;;12.35;;
78116;SDS011;69042;59.120;37.904;2023-10-31T10:21:04;22.05;;;10.32;;
78116;SDS011;69042;59.120;37.904;2023-10-31T10:23:31;20.17;;;8.70;;
78116;SDS011;69042;59.120;37.904;2023-10-31T10:25:59;19.90;;;9.10;;
78116;SDS011;69042;59.120;37.904;2023-10-31T10:28:26;21.98;;;8.60;;
78116;SDS011;69042;59.120;37.904;2023-10-31T10:30:53;18.92;;;8.10;;
78116;SDS011;69042;59.120;37.904;2023-10-31T10:33:20;24.15;;;8.32;;
78116;SDS011;69042;59.120;37.904;2023-10-31T10:35:48;15.40;;;7.50;;
78116;SDS011;69042;59.120;37.904;2023-10-31T10:38:16;18.13;;;8.63;;
78116;SDS011;69042;59.120;37.904;2023-10-31T10:40:44;16.90;;;7.40;;
78116;SDS011;69042;59.120;37.904;2023-10-31T10:43:22;17.60;;;7.43;;
78116;SDS011;69042;59.120;37.904;2023-10-31T10:45:54;16.58;;;7.75;;
78116;SDS011;69042;59.120;37.904;2023-10-31T10:48:24;15.60;;;6.95;;
78116;SDS011;69042;59.120;37.904;2023-10-31T10:51:06;18.08;;;8.82;;
78116;SDS011;69042;59.120;37.904;2023-10-31T10:56:22;24.13;;;10.98;;
78116;SDS011;69042;59.120;37.904;2023-10-31T11:01:20;19.33;;;8.38;;
78116;SDS011;69042;59.120;37.904;2023-10-31T11:03:48;21.67;;;8.10;;
78116;SDS011;69042;59.120;37.904;2023-10-31T11:06:15;20.08;;;8.52;;
78116;SDS011;69042;59.120;37.904;2023-10-31T11:08:42;16.23;;;7.07;;
78116;SDS011;69042;59.120;37.904;2023-10-31T11:11:09;19.02;;;8.95;;
78116;SDS011;69042;59.120;37.904;2023-10-31T11:13:36;26.27;;;10.48;;
78116;SDS011;69042;59.120;37.904;2023-10-31T11:16:05;21.13;;;9.07;;
78116;SDS011;69042;59.120;37.904;2023-10-31T11:18:39;21.75;;;8.48;;
78116;SDS011;69042;59.120;37.904;2023-10-31T11:21:07;19.63;;;8.43;;
78116;SDS011;69042;59.120;37.904;2023-10-31T11:23:33;19.17;;;8.00;;
78116;SDS011;69042;59.120;37.904;2023-10-31T11:25:59;18.02;;;7.15;;
78116;SDS011;69042;59.120;37.904;2023-10-31T11:28:26;19.75;;;8.23;;
78116;SDS011;69042;59.120;37.904;2023-10-31T11:30:53;20.48;;;8.15;;
78116;SDS011;69042;59.120;37.904;2023-10-31T11:33:24;17.42;;;7.22;;
78116;SDS011;69042;59.120;37.904;2023-10-31T11:35:51;16.50;;;7.57;;
78116;SDS011;69042;59.120;37.904;2023-10-31T11:38:36;18.70;;;7.40;;
78116;SDS011;69042;59.120;37.904;2023-10-31T11:41:04;14.90;;;6.68;;
78116;SDS011;69042;59.120;37.904;2023-10-31T11:46:27;24.08;;;8.73;;
78116;SDS011;69042;59.120;37.904;2023-10-31T11:48:54;20.52;;;8.60;;
78116;SDS011;69042;59.120;37.904;2023-10-31T11:51:22;20.20;;;8.15;;
78116;SDS011;69042;59.120;37.904;2023-10-31T11:53:48;20.42;;;8.90;;
78116;SDS011;69042;59.120;37.904;2023-10-31T11:56:22;19.20;;;8.60;;
78116;SDS011;69042;59.120;37.904;2023-10-31T11:58:59;19.00;;;8.65;;
78116;SDS011;69042;59.120;37.904;2023-10-31T12:01:27;18.45;;;8.38;;
78116;SDS011;69042;59.120;37.904;2023-10-31T12:03:54;20.42;;;7.95;;
78116;SDS011;69042;59.120;37.904;2023-10-31T12:06:21;17.45;;;7.30;;
78116;SDS011;69042;59.120;37.904;2023-10-31T12:08:47;17.13;;;6.88;;
78116;SDS011;69042;59.120;37.904;2023-10-31T12:13:50;16.48;;;6.85;;
78116;SDS011;69042;59.120;37.904;2023-10-31T12:16:17;16.88;;;6.97;;
78116;SDS011;69042;59.120;37.904;2023-10-31T12:18:44;14.27;;;6.30;;
78116;SDS011;69042;59.120;37.904;2023-10-31T12:21:10;15.95;;;7.05;;
78116;SDS011;69042;59.120;37.904;2023-10-31T12:23:40;17.00;;;6.95;;
78116;SDS011;69042;59.120;37.904;2023-10-31T12:26:06;14.93;;;6.20;;
78116;SDS011;69042;59.120;37.904;2023-10-31T12:28:33;15.77;;;6.40;;
78116;SDS011;69042;59.120;37.904;2023-10-31T12:30:59;17.95;;;8.48;;
78116;SDS011;69042;59.120;37.904;2023-10-31T12:33:28;18.25;;;7.38;;
78116;SDS011;69042;59.120;37.904;2023-10-31T12:36:01;20.45;;;7.68;;
78116;SDS011;69042;59.120;37.904;2023-10-31T12:38:28;15.75;;;7.20;;
78116;SDS011;69042;59.120;37.904;2023-10-31T12:40:55;16.45;;;6.38;;
78116;SDS011;69042;59.120;37.904;2023-10-31T12:43:22;16.90;;;7.07;;
78116;SDS011;69042;59.120;37.904;2023-10-31T12:45:49;22.23;;;9.90;;
78116;SDS011;69042;59.120;37.904;2023-10-31T12:48:15;15.30;;;7.10;;
78116;SDS011;69042;59.120;37.904;2023-10-31T12:50:42;15.63;;;6.75;;
78116;SDS011;69042;59.120;37.904;2023-10-31T12:53:08;15.07;;;7.15;;
78116;SDS011;69042;59.120;37.904;2023-10-31T12:55:41;14.20;;;7.45;;
78116;SDS011;69042;59.120;37.904;2023-10-31T12:58:09;19.73;;;7.88;;
78116;SDS011;69042;59.120;37.904;2023-10-31T13:00:36;18.98;;;8.38;;
78116;SDS011;69042;59.120;37.904;2023-10-31T13:03:04;17.30;;;7.75;;
78116;SDS011;69042;59.120;37.904;2023-10-31T13:05:32;18.42;;;7.82;;
78116;SDS011;69042;59.120;37.904;2023-10-31T13:07:59;17.42;;;7.43;;
78116;SDS011;69042;59.120;37.904;2023-10-31T13:10:27;22.13;;;10.55;;
78116;SDS011;69042;59.120;37.904;2023-10-31T13:12:58;20.58;;;9.20;;
78116;SDS011;69042;59.120;37.904;2023-10-31T13:15:25;18.10;;;7.80;;
78116;SDS011;69042;59.120;37.904;2023-10-31T13:17:52;18.45;;;7.70;;
78116;SDS011;69042;59.120;37.904;2023-10-31T13:20:19;18.60;;;7.53;;
78116;SDS011;69042;59.120;37.904;2023-10-31T13:22:48;17.05;;;6.85;;
78116;SDS011;69042;59.120;37.904;2023-10-31T13:25:15;17.20;;;7.25;;
78116;SDS011;69042;59.120;37.904;2023-10-31T13:27:45;15.85;;;7.45;;
78116;SDS011;69042;59.120;37.904;2023-10-31T13:30:18;16.55;;;6.43;;
78116;SDS011;69042;59.120;37.904;2023-10-31T13:32:47;17.42;;;6.72;;
78116;SDS011;69042;59.120;37.904;2023-10-31T13:35:14;16.30;;;8.25;;
78116;SDS011;69042;59.120;37.904;2023-10-31T13:37:40;14.07;;;6.43;;
78116;SDS011;69042;59.120;37.904;2023-10-31T13:40:07;17.02;;;7.20;;
78116;SDS011;69042;59.120;37.904;2023-10-31T13:42:35;18.02;;;6.75;;
78116;SDS011;69042;59.120;37.904;2023-10-31T13:45:02;21.33;;;7.43;;
78116;SDS011;69042;59.120;37.904;2023-10-31T13:47:29;15.73;;;7.80;;
78116;SDS011;69042;59.120;37.904;2023-10-31T13:49:56;21.70;;;8.48;;
78116;SDS011;69042;59.120;37.904;2023-10-31T13:52:22;18.40;;;7.70;;
78116;SDS011;69042;59.120;37.904;2023-10-31T13:54:49;17.25;;;7.88;;
78116;SDS011;69042;59.120;37.904;2023-10-31T13:57:16;23.95;;;11.25;;
78116;SDS011;69042;59.120;37.904;2023-10-31T13:59:44;21.33;;;8.82;;
78116;SDS011;69042;59.120;37.904;2023-10-31T14:02:10;18.52;;;9.18;;
78116;SDS011;69042;59.120;37.904;2023-10-31T14:04:37;19.88;;;8.63;;
78116;SDS011;69042;59.120;37.904;2023-10-31T14:07:03;21.77;;;9.13;;
78116;SDS011;69042;59.120;37.904;2023-10-31T14:09:31;22.60;;;8.70;;
78116;SDS011;69042;59.120;37.904;2023-10-31T14:11:59;21.60;;;9.40;;
78116;SDS011;69042;59.120;37.904;2023-10-31T14:14:25;21.13;;;8.70;;
78116;SDS011;69042;59.120;37.904;2023-10-31T14:16:52;18.92;;;7.70;;
78116;SDS011;69042;59.120;37.904;2023-10-31T14:19:20;22.42;;;9.02;;
78116;SDS011;69042;59.120;37.904;2023-10-31T14:21:47;16.70;;;6.95;;
78116;SDS011;69042;59.120;37.904;2023-10-31T14:24:13;18.08;;;7.63;;
78116;SDS011;69042;59.120;37.904;2023-10-31T14:26:40;18.88;;;7.60;;
78116;SDS011;69042;59.120;37.904;2023-10-31T14:29:08;18.67;;;7.93;;
78116;SDS011;69042;59.120;37.904;2023-10-31T14:31:42;20.92;;;7.82;;
78116;SDS011;69042;59.120;37.904;2023-10-31T14:34:09;18.20;;;8.02;;